Time,TemperatureF,DewpointF,PressureIn,WindDirection,WindDirectionDegrees,WindSpeedMPH,WindSpeedGustMPH,Humidity,HourlyPrecipIn,Conditions,Clouds,dailyrainin,SolarRadiationWatts/m^2,SoftwareType,DateUTC
2013-03-12 00:00:00,55.5,51.4,29.61,SSE,150,9.0,9.0,86,0.00,,,0.00,0,Wunderground v.1.15,2013-03-12 04:00:00,
2013-03-12 00:30:00,55.5,51.1,29.62,SSW,192,9.0,9.0,85,0.00,,,0.00,0,Wunderground v.1.15,2013-03-12 04:30:00,
2013-03-12 01:00:00,56.0,51.2,29.60,SSE,153,15.0,15.0,84,0.00,,,0.00,0,Wunderground v.1.15,2013-03-12 05:00:00,
2013-03-12 01:30:00,56.5,51.7,29.59,South,171,5.0,7.0,84,0.00,,,0.00,0,Wunderground v.1.15,2013-03-12 05:30:00,
2013-03-12 02:00:00,57.0,51.9,29.59,South,173,7.0,7.0,83,0.00,,,0.00,0,Wunderground v.1.15,2013-03-12 06:00:00,
2013-03-12 02:30:00,56.5,51.7,29.58,SSE,147,5.0,7.0,84,0.00,,,0.00,0,Wunderground v.1.15,2013-03-12 06:30:00,
2013-03-12 03:00:00,56.2,51.7,29.56,SSE,164,13.0,13.0,85,0.00,,,0.00,0,Wunderground v.1.15,2013-03-12 07:00:00,
2013-03-12 03:30:00,56.4,52.3,29.54,SSW,211,10.0,10.0,86,0.00,,,0.00,0,Wunderground v.1.15,2013-03-12 07:30:00,
2013-03-12 04:00:00,56.1,52.3,29.54,SE,139,9.0,9.0,87,0.00,,,0.00,0,Wunderground v.1.15,2013-03-12 08:00:00,
2013-03-12 04:29:00,56.4,52.9,29.53,South,176,8.0,8.0,88,0.00,,,0.00,0,Wunderground v.1.15,2013-03-12 08:29:00,
2013-03-12 04:59:00,56.1,52.9,29.53,SSW,197,6.0,7.0,89,0.00,,,0.00,0,Wunderground v.1.15,2013-03-12 08:59:00,
2013-03-12 05:29:00,56.0,53.4,29.52,SSE,162,3.0,7.0,91,0.00,,,0.00,0,Wunderground v.1.15,2013-03-12 09:29:00,
2013-03-12 06:00:00,55.8,53.8,29.52,SSE,167,6.0,7.0,93,0.00,,,0.00,0,Wunderground v.1.15,2013-03-12 10:00:00,
2013-03-12 06:30:00,54.8,54.8,29.52,South,187,15.0,15.0,100,0.00,,,0.00,0,Wunderground v.1.15,2013-03-12 10:30:00,
2013-03-12 07:00:00,54.2,54.2,29.52,South,172,9.0,9.0,100,0.00,,,0.00,0,Wunderground v.1.15,2013-03-12 11:00:00,
2013-03-12 07:30:00,54.1,54.1,29.51,SSW,205,3.0,7.0,100,0.00,,,0.00,0,Wunderground v.1.15,2013-03-12 11:30:00,
2013-03-12 08:00:00,53.9,53.9,29.52,SW,225,1.0,7.0,100,0.00,,,0.00,0,Wunderground v.1.15,2013-03-12 12:00:00,
2013-03-12 08:30:00,52.7,52.7,29.53,SW,223,2.0,7.0,100,0.00,,,0.00,0,Wunderground v.1.15,2013-03-12 12:30:00,
2013-03-12 08:59:00,51.0,51.0,29.54,SW,228,0.0,7.0,100,0.00,,,0.00,0,Wunderground v.1.15,2013-03-12 12:59:00,
2013-03-12 09:29:00,49.9,49.9,29.55,West,268,1.0,7.0,100,0.00,,,0.00,0,Wunderground v.1.15,2013-03-12 13:29:00,
2013-03-12 09:59:00,49.2,49.2,29.54,NW,322,0.0,7.0,100,0.00,,,0.00,0,Wunderground v.1.15,2013-03-12 13:59:00,
2013-03-12 10:29:00,49.7,49.7,29.55,NW,322,0.0,7.0,100,0.00,,,0.00,0,Wunderground v.1.15,2013-03-12 14:29:00,
2013-03-12 11:00:00,49.1,49.1,29.56,NNW,332,1.0,7.0,100,0.00,,,0.00,0,Wunderground v.1.15,2013-03-12 15:00:00,
2013-03-12 11:30:00,48.8,48.8,29.56,NNW,330,2.0,7.0,100,0.00,,,0.00,0,Wunderground v.1.15,2013-03-12 15:30:00,
2013-03-12 11:59:00,48.1,48.1,29.57,NNW,338,2.0,7.0,100,0.00,,,0.00,0,Wunderground v.1.15,2013-03-12 15:59:00,
2013-03-12 12:30:00,49.7,49.7,29.57,NW,324,1.0,7.0,100,0.00,,,0.00,0,Wunderground v.1.15,2013-03-12 16:30:00,
2013-03-12 13:00:00,51.8,51.5,29.57,WNW,285,4.0,7.0,99,0.00,,,0.00,0,Wunderground v.1.15,2013-03-12 17:00:00,
2013-03-12 13:29:00,51.8,47.7,29.58,WNW,294,4.0,7.0,86,0.00,,,0.00,0,Wunderground v.1.15,2013-03-12 17:29:00,
2013-03-12 13:59:00,53.2,46.5,29.57,WSW,249,4.0,7.0,78,0.00,,,0.00,0,Wunderground v.1.15,2013-03-12 17:59:00,
2013-03-12 14:29:00,54.1,43.8,29.58,West,280,5.0,7.0,68,0.00,,,0.00,0,Wunderground v.1.15,2013-03-12 18:29:00,
2013-03-12 15:00:00,51.8,40.8,29.57,SW,221,6.0,7.0,66,0.00,,,0.00,0,Wunderground v.1.15,2013-03-12 19:00:00,
2013-03-12 15:30:00,52.1,41.1,29.59,NW,305,6.0,7.0,66,0.00,,,0.00,0,Wunderground v.1.15,2013-03-12 19:30:00,
2013-03-12 16:00:00,49.4,40.0,29.61,WNW,294,4.0,7.0,70,0.00,,,0.00,0,Wunderground v.1.15,2013-03-12 20:00:00,
2013-03-12 16:30:00,48.5,38.8,29.62,WSW,239,3.0,7.0,69,0.00,,,0.00,0,Wunderground v.1.15,2013-03-12 20:30:00,
2013-03-12 17:00:00,49.7,38.8,29.62,NW,320,1.0,7.0,66,0.00,,,0.00,0,Wunderground v.1.15,2013-03-12 21:00:00,
2013-03-12 17:30:00,49.7,38.8,29.63,WNW,289,1.0,7.0,66,0.00,,,0.00,0,Wunderground v.1.15,2013-03-12 21:30:00,
2013-03-12 18:00:00,47.1,36.7,29.63,NNW,334,1.0,7.0,67,0.00,,,0.00,0,Wunderground v.1.15,2013-03-12 22:00:00,
2013-03-12 18:30:00,46.3,36.7,29.65,NNW,328,3.0,7.0,69,0.00,,,0.00,0,Wunderground v.1.15,2013-03-12 22:30:00,
2013-03-12 19:00:00,44.5,34.6,29.66,WNW,287,6.0,7.0,68,0.00,,,0.00,0,Wunderground v.1.15,2013-03-12 23:00:00,
2013-03-12 19:30:00,43.6,34.5,29.67,North,0,2.0,7.0,70,0.00,,,0.00,0,Wunderground v.1.15,2013-03-12 23:30:00,
2013-03-12 20:00:00,43.1,34.7,29.68,WSW,256,1.0,7.0,72,0.00,,,0.00,0,Wunderground v.1.15,2013-03-13 00:00:00,
2013-03-12 20:30:00,42.6,34.2,29.69,NNW,345,3.0,7.0,72,0.00,,,0.00,0,Wunderground v.1.15,2013-03-13 00:30:00,
2013-03-12 21:00:00,41.9,33.5,29.71,North,358,1.0,7.0,72,0.00,,,0.00,0,Wunderground v.1.15,2013-03-13 01:00:00,
2013-03-12 21:30:00,42.0,34.0,29.71,WNW,300,1.0,7.0,73,0.00,,,0.00,0,Wunderground v.1.15,2013-03-13 01:30:00,
2013-03-12 22:00:00,42.3,34.3,29.72,WNW,298,2.0,7.0,73,0.00,,,0.00,0,Wunderground v.1.15,2013-03-13 02:00:00,
2013-03-12 22:30:00,42.6,34.5,29.72,WNW,298,0.0,7.0,73,0.00,,,0.00,0,Wunderground v.1.15,2013-03-13 02:30:00,
2013-03-12 23:00:00,42.3,33.9,29.73,NW,326,0.0,7.0,72,0.00,,,0.00,0,Wunderground v.1.15,2013-03-13 03:00:00,
2013-03-12 23:30:00,41.2,32.2,29.73,NW,309,0.0,7.0,70,0.00,,,0.00,0,Wunderground v.1.15,2013-03-13 03:30:00,